<?xml version="1.0" encoding="UTF-8" standalone="no" ?>
<gpx xmlns="http://www.topografix.com/GPX/1/1" xmlns:xsi="http://www.w3.org/2001/XMLSchema-instance" xsi:schemaLocation="http://www.topografix.com/GPX/1/1 http://www.topografix.com/GPX/1/1/gpx.xsd" version="1.1" creator="VisuGPX - https://www.visugpx.com">
  <metadata>
    <name>manglieu 12km</name>
  </metadata>
  <trk>
    <name><![CDATA[manglieu 12km]]></name>
    <trkseg>
      <trkpt lat="45.61144" lon="3.35083">
        <ele>429.59</ele>
        <time>2025-09-22T16:07:02.000Z</time>
      </trkpt>
      <trkpt lat="45.61146" lon="3.35089">
        <ele>429.39</ele>
        <time>2025-09-22T16:07:02.002Z</time>
      </trkpt>
      <trkpt lat="45.61145" lon="3.3509">
        <ele>429.17</ele>
        <time>2025-09-22T16:07:02.004Z</time>
      </trkpt>
      <trkpt lat="45.61131" lon="3.35119">
        <ele>428.75</ele>
        <time>2025-09-22T16:07:02.014Z</time>
      </trkpt>
      <trkpt lat="45.6112" lon="3.3515">
        <ele>428.18</ele>
        <time>2025-09-22T16:07:02.032Z</time>
      </trkpt>
      <trkpt lat="45.61107" lon="3.35168">
        <ele>427.64</ele>
        <time>2025-09-22T16:07:02.056Z</time>
      </trkpt>
      <trkpt lat="45.61094" lon="3.35186">
        <ele>427.22</ele>
        <time>2025-09-22T16:07:02.086Z</time>
      </trkpt>
      <trkpt lat="45.6109" lon="3.35192">
        <ele>426.86</ele>
        <time>2025-09-22T16:07:02.118Z</time>
      </trkpt>
      <trkpt lat="45.61081" lon="3.35205">
        <ele>426.53</ele>
        <time>2025-09-22T16:07:02.155Z</time>
      </trkpt>
      <trkpt lat="45.61062" lon="3.35237">
        <ele>426.34</ele>
        <time>2025-09-22T16:07:02.201Z</time>
      </trkpt>
      <trkpt lat="45.61042" lon="3.35268">
        <ele>426.06</ele>
        <time>2025-09-22T16:07:02.257Z</time>
      </trkpt>
      <trkpt lat="45.61023" lon="3.353">
        <ele>425.66</ele>
        <time>2025-09-22T16:07:02.323Z</time>
      </trkpt>
      <trkpt lat="45.61007" lon="3.35326">
        <ele>425.27</ele>
        <time>2025-09-22T16:07:02.397Z</time>
      </trkpt>
      <trkpt lat="45.60991" lon="3.35351">
        <ele>424.91</ele>
        <time>2025-09-22T16:07:02.479Z</time>
      </trkpt>
      <trkpt lat="45.60985" lon="3.35362">
        <ele>424.59</ele>
        <time>2025-09-22T16:07:02.564Z</time>
      </trkpt>
      <trkpt lat="45.6097" lon="3.35396">
        <ele>424.32</ele>
        <time>2025-09-22T16:07:02.659Z</time>
      </trkpt>
      <trkpt lat="45.60955" lon="3.35431">
        <ele>424.17</ele>
        <time>2025-09-22T16:07:02.763Z</time>
      </trkpt>
      <trkpt lat="45.60942" lon="3.35452">
        <ele>423.96</ele>
        <time>2025-09-22T16:07:02.874Z</time>
      </trkpt>
      <trkpt lat="45.60918" lon="3.35467">
        <ele>423.78</ele>
        <time>2025-09-22T16:07:02.994Z</time>
      </trkpt>
      <trkpt lat="45.60896" lon="3.35478">
        <ele>423.54</ele>
        <time>2025-09-22T16:07:03.121Z</time>
      </trkpt>
      <trkpt lat="45.60873" lon="3.35489">
        <ele>423.36</ele>
        <time>2025-09-22T16:07:03.256Z</time>
      </trkpt>
      <trkpt lat="45.60854" lon="3.35504">
        <ele>423.12</ele>
        <time>2025-09-22T16:07:03.399Z</time>
      </trkpt>
      <trkpt lat="45.60836" lon="3.35533">
        <ele>422.84</ele>
        <time>2025-09-22T16:07:03.551Z</time>
      </trkpt>
      <trkpt lat="45.60819" lon="3.35563">
        <ele>422.57</ele>
        <time>2025-09-22T16:07:03.712Z</time>
      </trkpt>
      <trkpt lat="45.60801" lon="3.35593">
        <ele>422.48</ele>
        <time>2025-09-22T16:07:03.882Z</time>
      </trkpt>
      <trkpt lat="45.60784" lon="3.35623">
        <ele>422.43</ele>
        <time>2025-09-22T16:07:04.061Z</time>
      </trkpt>
      <trkpt lat="45.60766" lon="3.35652">
        <ele>422.24</ele>
        <time>2025-09-22T16:07:04.249Z</time>
      </trkpt>
      <trkpt lat="45.60749" lon="3.35682">
        <ele>421.96</ele>
        <time>2025-09-22T16:07:04.446Z</time>
      </trkpt>
      <trkpt lat="45.60732" lon="3.35712">
        <ele>421.82</ele>
        <time>2025-09-22T16:07:04.652Z</time>
      </trkpt>
      <trkpt lat="45.60712" lon="3.35745">
        <ele>421.71</ele>
        <time>2025-09-22T16:07:04.869Z</time>
      </trkpt>
      <trkpt lat="45.60692" lon="3.35779">
        <ele>421.64</ele>
        <time>2025-09-22T16:07:05.096Z</time>
      </trkpt>
      <trkpt lat="45.60672" lon="3.35813">
        <ele>421.6</ele>
        <time>2025-09-22T16:07:05.333Z</time>
      </trkpt>
      <trkpt lat="45.60651" lon="3.35846">
        <ele>421.72</ele>
        <time>2025-09-22T16:07:05.581Z</time>
      </trkpt>
      <trkpt lat="45.60631" lon="3.3588">
        <ele>421.93</ele>
        <time>2025-09-22T16:07:05.839Z</time>
      </trkpt>
      <trkpt lat="45.60611" lon="3.35913">
        <ele>421.96</ele>
        <time>2025-09-22T16:07:06.107Z</time>
      </trkpt>
      <trkpt lat="45.60613" lon="3.35946">
        <ele>422.08</ele>
        <time>2025-09-22T16:07:06.383Z</time>
      </trkpt>
      <trkpt lat="45.60614" lon="3.35978">
        <ele>422.09</ele>
        <time>2025-09-22T16:07:06.666Z</time>
      </trkpt>
      <trkpt lat="45.60611" lon="3.36003">
        <ele>422.14</ele>
        <time>2025-09-22T16:07:06.955Z</time>
      </trkpt>
      <trkpt lat="45.60609" lon="3.36027">
        <ele>422.24</ele>
        <time>2025-09-22T16:07:07.250Z</time>
      </trkpt>
      <trkpt lat="45.606" lon="3.36057">
        <ele>422.33</ele>
        <time>2025-09-22T16:07:07.552Z</time>
      </trkpt>
      <trkpt lat="45.6059" lon="3.36086">
        <ele>422.35</ele>
        <time>2025-09-22T16:07:07.862Z</time>
      </trkpt>
      <trkpt lat="45.60581" lon="3.36115">
        <ele>422.36</ele>
        <time>2025-09-22T16:07:08.180Z</time>
      </trkpt>
      <trkpt lat="45.60575" lon="3.36134">
        <ele>422.44</ele>
        <time>2025-09-22T16:07:08.502Z</time>
      </trkpt>
      <trkpt lat="45.60563" lon="3.36161">
        <ele>422.53</ele>
        <time>2025-09-22T16:07:08.832Z</time>
      </trkpt>
      <trkpt lat="45.60551" lon="3.36188">
        <ele>422.71</ele>
        <time>2025-09-22T16:07:09.169Z</time>
      </trkpt>
      <trkpt lat="45.60546" lon="3.36221">
        <ele>422.9</ele>
        <time>2025-09-22T16:07:09.514Z</time>
      </trkpt>
      <trkpt lat="45.6054" lon="3.36254">
        <ele>423.14</ele>
        <time>2025-09-22T16:07:09.867Z</time>
      </trkpt>
      <trkpt lat="45.60534" lon="3.36287">
        <ele>423.53</ele>
        <time>2025-09-22T16:07:10.228Z</time>
      </trkpt>
      <trkpt lat="45.6052" lon="3.36324">
        <ele>423.97</ele>
        <time>2025-09-22T16:07:10.599Z</time>
      </trkpt>
      <trkpt lat="45.60505" lon="3.36361">
        <ele>424.43</ele>
        <time>2025-09-22T16:07:10.980Z</time>
      </trkpt>
      <trkpt lat="45.60491" lon="3.36398">
        <ele>425.16</ele>
        <time>2025-09-22T16:07:11.371Z</time>
      </trkpt>
      <trkpt lat="45.60476" lon="3.36435">
        <ele>425.95</ele>
        <time>2025-09-22T16:07:11.772Z</time>
      </trkpt>
      <trkpt lat="45.6047" lon="3.36464">
        <ele>426.85</ele>
        <time>2025-09-22T16:07:12.180Z</time>
      </trkpt>
      <trkpt lat="45.60463" lon="3.36493">
        <ele>427.88</ele>
        <time>2025-09-22T16:07:12.595Z</time>
      </trkpt>
      <trkpt lat="45.60451" lon="3.36531">
        <ele>429.02</ele>
        <time>2025-09-22T16:07:13.020Z</time>
      </trkpt>
      <trkpt lat="45.60451" lon="3.36531">
        <ele>430.09</ele>
        <time>2025-09-22T16:07:13.445Z</time>
      </trkpt>
      <trkpt lat="45.60441" lon="3.36557">
        <ele>431.31</ele>
        <time>2025-09-22T16:07:13.877Z</time>
      </trkpt>
      <trkpt lat="45.60431" lon="3.36583">
        <ele>432.57</ele>
        <time>2025-09-22T16:07:14.316Z</time>
      </trkpt>
      <trkpt lat="45.60431" lon="3.36596">
        <ele>433.91</ele>
        <time>2025-09-22T16:07:14.758Z</time>
      </trkpt>
      <trkpt lat="45.6044" lon="3.36607">
        <ele>435.43</ele>
        <time>2025-09-22T16:07:15.203Z</time>
      </trkpt>
      <trkpt lat="45.60466" lon="3.36609">
        <ele>437.22</ele>
        <time>2025-09-22T16:07:15.657Z</time>
      </trkpt>
      <trkpt lat="45.60482" lon="3.36614">
        <ele>439.03</ele>
        <time>2025-09-22T16:07:16.117Z</time>
      </trkpt>
      <trkpt lat="45.60498" lon="3.36619">
        <ele>440.98</ele>
        <time>2025-09-22T16:07:16.582Z</time>
      </trkpt>
      <trkpt lat="45.605" lon="3.36624">
        <ele>442.92</ele>
        <time>2025-09-22T16:07:17.048Z</time>
      </trkpt>
      <trkpt lat="45.60515" lon="3.36617">
        <ele>445.12</ele>
        <time>2025-09-22T16:07:17.520Z</time>
      </trkpt>
      <trkpt lat="45.60525" lon="3.36619">
        <ele>447.35</ele>
        <time>2025-09-22T16:07:17.995Z</time>
      </trkpt>
      <trkpt lat="45.60526" lon="3.36619">
        <ele>449.67</ele>
        <time>2025-09-22T16:07:18.470Z</time>
      </trkpt>
      <trkpt lat="45.60551" lon="3.36629">
        <ele>452.32</ele>
        <time>2025-09-22T16:07:18.954Z</time>
      </trkpt>
      <trkpt lat="45.60577" lon="3.36639">
        <ele>455.16</ele>
        <time>2025-09-22T16:07:19.447Z</time>
      </trkpt>
      <trkpt lat="45.60598" lon="3.3665">
        <ele>458.13</ele>
        <time>2025-09-22T16:07:19.947Z</time>
      </trkpt>
      <trkpt lat="45.60618" lon="3.36662">
        <ele>461.25</ele>
        <time>2025-09-22T16:07:20.455Z</time>
      </trkpt>
      <trkpt lat="45.60633" lon="3.36673">
        <ele>464.46</ele>
        <time>2025-09-22T16:07:20.968Z</time>
      </trkpt>
      <trkpt lat="45.60648" lon="3.36684">
        <ele>467.83</ele>
        <time>2025-09-22T16:07:21.487Z</time>
      </trkpt>
      <trkpt lat="45.60659" lon="3.36707">
        <ele>471.3</ele>
        <time>2025-09-22T16:07:22.012Z</time>
      </trkpt>
      <trkpt lat="45.60669" lon="3.36731">
        <ele>474.9</ele>
        <time>2025-09-22T16:07:22.544Z</time>
      </trkpt>
      <trkpt lat="45.60687" lon="3.36757">
        <ele>478.67</ele>
        <time>2025-09-22T16:07:23.084Z</time>
      </trkpt>
      <trkpt lat="45.60709" lon="3.36777">
        <ele>482.56</ele>
        <time>2025-09-22T16:07:23.633Z</time>
      </trkpt>
      <trkpt lat="45.60732" lon="3.36796">
        <ele>486.48</ele>
        <time>2025-09-22T16:07:24.191Z</time>
      </trkpt>
      <trkpt lat="45.60754" lon="3.36816">
        <ele>490.36</ele>
        <time>2025-09-22T16:07:24.758Z</time>
      </trkpt>
      <trkpt lat="45.60777" lon="3.36836">
        <ele>494.3</ele>
        <time>2025-09-22T16:07:25.334Z</time>
      </trkpt>
      <trkpt lat="45.608" lon="3.36856">
        <ele>498.42</ele>
        <time>2025-09-22T16:07:25.919Z</time>
      </trkpt>
      <trkpt lat="45.60822" lon="3.36887">
        <ele>502.44</ele>
        <time>2025-09-22T16:07:26.514Z</time>
      </trkpt>
      <trkpt lat="45.60845" lon="3.36919">
        <ele>506.49</ele>
        <time>2025-09-22T16:07:27.120Z</time>
      </trkpt>
      <trkpt lat="45.60867" lon="3.3695">
        <ele>510.59</ele>
        <time>2025-09-22T16:07:27.736Z</time>
      </trkpt>
      <trkpt lat="45.6089" lon="3.36981">
        <ele>514.66</ele>
        <time>2025-09-22T16:07:28.363Z</time>
      </trkpt>
      <trkpt lat="45.60899" lon="3.36994">
        <ele>518.52</ele>
        <time>2025-09-22T16:07:28.994Z</time>
      </trkpt>
      <trkpt lat="45.60916" lon="3.37029">
        <ele>522.26</ele>
        <time>2025-09-22T16:07:29.635Z</time>
      </trkpt>
      <trkpt lat="45.60942" lon="3.37004">
        <ele>526.24</ele>
        <time>2025-09-22T16:07:30.286Z</time>
      </trkpt>
      <trkpt lat="45.60968" lon="3.36978">
        <ele>530.16</ele>
        <time>2025-09-22T16:07:30.948Z</time>
      </trkpt>
      <trkpt lat="45.60977" lon="3.36969">
        <ele>533.8</ele>
        <time>2025-09-22T16:07:31.613Z</time>
      </trkpt>
      <trkpt lat="45.61003" lon="3.36944">
        <ele>537.42</ele>
        <time>2025-09-22T16:07:32.289Z</time>
      </trkpt>
      <trkpt lat="45.61019" lon="3.36927">
        <ele>540.76</ele>
        <time>2025-09-22T16:07:32.972Z</time>
      </trkpt>
      <trkpt lat="45.61049" lon="3.36911">
        <ele>544.09</ele>
        <time>2025-09-22T16:07:33.665Z</time>
      </trkpt>
      <trkpt lat="45.61065" lon="3.36903">
        <ele>547.06</ele>
        <time>2025-09-22T16:07:34.364Z</time>
      </trkpt>
      <trkpt lat="45.61092" lon="3.36888">
        <ele>549.94</ele>
        <time>2025-09-22T16:07:35.073Z</time>
      </trkpt>
      <trkpt lat="45.61124" lon="3.36886">
        <ele>552.67</ele>
        <time>2025-09-22T16:07:35.792Z</time>
      </trkpt>
      <trkpt lat="45.61146" lon="3.36885">
        <ele>554.88</ele>
        <time>2025-09-22T16:07:36.519Z</time>
      </trkpt>
      <trkpt lat="45.61152" lon="3.36841">
        <ele>557.02</ele>
        <time>2025-09-22T16:07:37.256Z</time>
      </trkpt>
      <trkpt lat="45.61158" lon="3.36797">
        <ele>558.71</ele>
        <time>2025-09-22T16:07:38.004Z</time>
      </trkpt>
      <trkpt lat="45.61162" lon="3.36765">
        <ele>559.92</ele>
        <time>2025-09-22T16:07:38.759Z</time>
      </trkpt>
      <trkpt lat="45.61169" lon="3.36721">
        <ele>560.85</ele>
        <time>2025-09-22T16:07:39.525Z</time>
      </trkpt>
      <trkpt lat="45.61175" lon="3.36677">
        <ele>561.33</ele>
        <time>2025-09-22T16:07:40.301Z</time>
      </trkpt>
      <trkpt lat="45.61176" lon="3.36674">
        <ele>561.44</ele>
        <time>2025-09-22T16:07:41.078Z</time>
      </trkpt>
      <trkpt lat="45.61178" lon="3.36638">
        <ele>561.17</ele>
        <time>2025-09-22T16:07:41.864Z</time>
      </trkpt>
      <trkpt lat="45.6119" lon="3.36606">
        <ele>560.6</ele>
        <time>2025-09-22T16:07:42.658Z</time>
      </trkpt>
      <trkpt lat="45.61205" lon="3.36567">
        <ele>559.67</ele>
        <time>2025-09-22T16:07:43.462Z</time>
      </trkpt>
      <trkpt lat="45.6122" lon="3.36528">
        <ele>558.69</ele>
        <time>2025-09-22T16:07:44.277Z</time>
      </trkpt>
      <trkpt lat="45.61236" lon="3.36489">
        <ele>557.4</ele>
        <time>2025-09-22T16:07:45.102Z</time>
      </trkpt>
      <trkpt lat="45.61245" lon="3.36466">
        <ele>556.3</ele>
        <time>2025-09-22T16:07:45.934Z</time>
      </trkpt>
      <trkpt lat="45.61245" lon="3.36452">
        <ele>555.29</ele>
        <time>2025-09-22T16:07:46.769Z</time>
      </trkpt>
      <trkpt lat="45.61235" lon="3.36425">
        <ele>554.17</ele>
        <time>2025-09-22T16:07:47.611Z</time>
      </trkpt>
      <trkpt lat="45.61227" lon="3.36405">
        <ele>553.21</ele>
        <time>2025-09-22T16:07:48.458Z</time>
      </trkpt>
      <trkpt lat="45.61235" lon="3.36377">
        <ele>552.45</ele>
        <time>2025-09-22T16:07:49.313Z</time>
      </trkpt>
      <trkpt lat="45.61254" lon="3.36342">
        <ele>552.06</ele>
        <time>2025-09-22T16:07:50.178Z</time>
      </trkpt>
      <trkpt lat="45.61274" lon="3.36306">
        <ele>552.06</ele>
        <time>2025-09-22T16:07:51.054Z</time>
      </trkpt>
      <trkpt lat="45.61293" lon="3.36271">
        <ele>552.33</ele>
        <time>2025-09-22T16:07:51.940Z</time>
      </trkpt>
      <trkpt lat="45.61299" lon="3.3626">
        <ele>552.8</ele>
        <time>2025-09-22T16:07:52.829Z</time>
      </trkpt>
      <trkpt lat="45.61291" lon="3.36303">
        <ele>553.64</ele>
        <time>2025-09-22T16:07:53.729Z</time>
      </trkpt>
      <trkpt lat="45.61286" lon="3.3633">
        <ele>554.78</ele>
        <time>2025-09-22T16:07:54.635Z</time>
      </trkpt>
      <trkpt lat="45.61285" lon="3.36373">
        <ele>556.4</ele>
        <time>2025-09-22T16:07:55.551Z</time>
      </trkpt>
      <trkpt lat="45.613" lon="3.36412">
        <ele>558.48</ele>
        <time>2025-09-22T16:07:56.478Z</time>
      </trkpt>
      <trkpt lat="45.61314" lon="3.36452">
        <ele>560.66</ele>
        <time>2025-09-22T16:07:57.415Z</time>
      </trkpt>
      <trkpt lat="45.61324" lon="3.36479">
        <ele>563.03</ele>
        <time>2025-09-22T16:07:58.359Z</time>
      </trkpt>
      <trkpt lat="45.61305" lon="3.36513">
        <ele>565.48</ele>
        <time>2025-09-22T16:07:59.314Z</time>
      </trkpt>
      <trkpt lat="45.61288" lon="3.36542">
        <ele>568.22</ele>
        <time>2025-09-22T16:08:00.277Z</time>
      </trkpt>
      <trkpt lat="45.61271" lon="3.3658">
        <ele>571.24</ele>
        <time>2025-09-22T16:08:01.251Z</time>
      </trkpt>
      <trkpt lat="45.61266" lon="3.36591">
        <ele>574.02</ele>
        <time>2025-09-22T16:08:02.228Z</time>
      </trkpt>
      <trkpt lat="45.61255" lon="3.36634">
        <ele>576.93</ele>
        <time>2025-09-22T16:08:03.216Z</time>
      </trkpt>
      <trkpt lat="45.61254" lon="3.3664">
        <ele>579.85</ele>
        <time>2025-09-22T16:08:04.205Z</time>
      </trkpt>
      <trkpt lat="45.61271" lon="3.36677">
        <ele>583.06</ele>
        <time>2025-09-22T16:08:05.205Z</time>
      </trkpt>
      <trkpt lat="45.61281" lon="3.36698">
        <ele>586.14</ele>
        <time>2025-09-22T16:08:06.211Z</time>
      </trkpt>
      <trkpt lat="45.61292" lon="3.36716">
        <ele>589.16</ele>
        <time>2025-09-22T16:08:07.222Z</time>
      </trkpt>
      <trkpt lat="45.6132" lon="3.36696">
        <ele>592.4</ele>
        <time>2025-09-22T16:08:08.244Z</time>
      </trkpt>
      <trkpt lat="45.61337" lon="3.36684">
        <ele>595.46</ele>
        <time>2025-09-22T16:08:09.272Z</time>
      </trkpt>
      <trkpt lat="45.61366" lon="3.36666">
        <ele>598.45</ele>
        <time>2025-09-22T16:08:10.310Z</time>
      </trkpt>
      <trkpt lat="45.6138" lon="3.36658">
        <ele>601.21</ele>
        <time>2025-09-22T16:08:11.353Z</time>
      </trkpt>
      <trkpt lat="45.61408" lon="3.36637">
        <ele>603.96</ele>
        <time>2025-09-22T16:08:12.407Z</time>
      </trkpt>
      <trkpt lat="45.61417" lon="3.3663">
        <ele>606.51</ele>
        <time>2025-09-22T16:08:13.465Z</time>
      </trkpt>
      <trkpt lat="45.6144" lon="3.366">
        <ele>609.12</ele>
        <time>2025-09-22T16:08:14.533Z</time>
      </trkpt>
      <trkpt lat="45.61444" lon="3.36596">
        <ele>611.33</ele>
        <time>2025-09-22T16:08:15.602Z</time>
      </trkpt>
      <trkpt lat="45.61456" lon="3.3656">
        <ele>613.45</ele>
        <time>2025-09-22T16:08:16.681Z</time>
      </trkpt>
      <trkpt lat="45.6145" lon="3.36541">
        <ele>615.1</ele>
        <time>2025-09-22T16:08:17.765Z</time>
      </trkpt>
      <trkpt lat="45.61458" lon="3.36498">
        <ele>616.57</ele>
        <time>2025-09-22T16:08:18.859Z</time>
      </trkpt>
      <trkpt lat="45.61459" lon="3.36496">
        <ele>617.83</ele>
        <time>2025-09-22T16:08:19.954Z</time>
      </trkpt>
      <trkpt lat="45.61467" lon="3.36466">
        <ele>618.79</ele>
        <time>2025-09-22T16:08:21.056Z</time>
      </trkpt>
      <trkpt lat="45.61489" lon="3.36482">
        <ele>620.01</ele>
        <time>2025-09-22T16:08:22.166Z</time>
      </trkpt>
      <trkpt lat="45.61514" lon="3.36484">
        <ele>620.73</ele>
        <time>2025-09-22T16:08:23.285Z</time>
      </trkpt>
      <trkpt lat="45.61518" lon="3.36469">
        <ele>620.86</ele>
        <time>2025-09-22T16:08:24.408Z</time>
      </trkpt>
      <trkpt lat="45.61519" lon="3.36447">
        <ele>620.42</ele>
        <time>2025-09-22T16:08:25.536Z</time>
      </trkpt>
      <trkpt lat="45.61534" lon="3.36425">
        <ele>619.79</ele>
        <time>2025-09-22T16:08:26.671Z</time>
      </trkpt>
      <trkpt lat="45.61555" lon="3.36429">
        <ele>619.21</ele>
        <time>2025-09-22T16:08:27.813Z</time>
      </trkpt>
      <trkpt lat="45.61567" lon="3.36436">
        <ele>618.19</ele>
        <time>2025-09-22T16:08:28.959Z</time>
      </trkpt>
      <trkpt lat="45.61581" lon="3.36434">
        <ele>616.73</ele>
        <time>2025-09-22T16:08:30.110Z</time>
      </trkpt>
      <trkpt lat="45.61577" lon="3.36417">
        <ele>614.82</ele>
        <time>2025-09-22T16:08:31.266Z</time>
      </trkpt>
      <trkpt lat="45.61567" lon="3.36408">
        <ele>612.65</ele>
        <time>2025-09-22T16:08:32.425Z</time>
      </trkpt>
      <trkpt lat="45.61556" lon="3.3641">
        <ele>610.27</ele>
        <time>2025-09-22T16:08:33.588Z</time>
      </trkpt>
      <trkpt lat="45.61544" lon="3.36412">
        <ele>607.57</ele>
        <time>2025-09-22T16:08:34.755Z</time>
      </trkpt>
      <trkpt lat="45.61536" lon="3.36401">
        <ele>604.46</ele>
        <time>2025-09-22T16:08:35.926Z</time>
      </trkpt>
      <trkpt lat="45.61526" lon="3.36383">
        <ele>601.02</ele>
        <time>2025-09-22T16:08:37.102Z</time>
      </trkpt>
      <trkpt lat="45.61517" lon="3.36363">
        <ele>597.4</ele>
        <time>2025-09-22T16:08:38.284Z</time>
      </trkpt>
      <trkpt lat="45.6151" lon="3.36339">
        <ele>593.61</ele>
        <time>2025-09-22T16:08:39.472Z</time>
      </trkpt>
      <trkpt lat="45.61505" lon="3.36322">
        <ele>589.83</ele>
        <time>2025-09-22T16:08:40.664Z</time>
      </trkpt>
      <trkpt lat="45.61507" lon="3.36278">
        <ele>585.8</ele>
        <time>2025-09-22T16:08:41.867Z</time>
      </trkpt>
      <trkpt lat="45.61507" lon="3.36253">
        <ele>582.03</ele>
        <time>2025-09-22T16:08:43.075Z</time>
      </trkpt>
      <trkpt lat="45.61506" lon="3.36209">
        <ele>578.15</ele>
        <time>2025-09-22T16:08:44.294Z</time>
      </trkpt>
      <trkpt lat="45.61506" lon="3.36178">
        <ele>574.35</ele>
        <time>2025-09-22T16:08:45.520Z</time>
      </trkpt>
      <trkpt lat="45.61501" lon="3.36134">
        <ele>570.58</ele>
        <time>2025-09-22T16:08:46.756Z</time>
      </trkpt>
      <trkpt lat="45.61497" lon="3.36091">
        <ele>566.71</ele>
        <time>2025-09-22T16:08:48.002Z</time>
      </trkpt>
      <trkpt lat="45.6151" lon="3.36058">
        <ele>562.98</ele>
        <time>2025-09-22T16:08:49.257Z</time>
      </trkpt>
      <trkpt lat="45.61527" lon="3.36042">
        <ele>559.5</ele>
        <time>2025-09-22T16:08:50.519Z</time>
      </trkpt>
      <trkpt lat="45.61556" lon="3.36026">
        <ele>556.15</ele>
        <time>2025-09-22T16:08:51.792Z</time>
      </trkpt>
      <trkpt lat="45.61586" lon="3.36012">
        <ele>552.89</ele>
        <time>2025-09-22T16:08:53.075Z</time>
      </trkpt>
      <trkpt lat="45.61586" lon="3.36012">
        <ele>549.8</ele>
        <time>2025-09-22T16:08:54.358Z</time>
      </trkpt>
      <trkpt lat="45.61617" lon="3.36007">
        <ele>546.67</ele>
        <time>2025-09-22T16:08:55.652Z</time>
      </trkpt>
      <trkpt lat="45.61634" lon="3.36005">
        <ele>543.68</ele>
        <time>2025-09-22T16:08:56.951Z</time>
      </trkpt>
      <trkpt lat="45.61666" lon="3.36007">
        <ele>540.82</ele>
        <time>2025-09-22T16:08:58.261Z</time>
      </trkpt>
      <trkpt lat="45.61687" lon="3.36009">
        <ele>538.08</ele>
        <time>2025-09-22T16:08:59.578Z</time>
      </trkpt>
      <trkpt lat="45.61717" lon="3.35995">
        <ele>535.31</ele>
        <time>2025-09-22T16:09:00.906Z</time>
      </trkpt>
      <trkpt lat="45.61732" lon="3.35987">
        <ele>532.91</ele>
        <time>2025-09-22T16:09:02.239Z</time>
      </trkpt>
      <trkpt lat="45.61762" lon="3.35972">
        <ele>530.6</ele>
        <time>2025-09-22T16:09:03.582Z</time>
      </trkpt>
      <trkpt lat="45.61791" lon="3.35956">
        <ele>528.42</ele>
        <time>2025-09-22T16:09:04.936Z</time>
      </trkpt>
      <trkpt lat="45.61793" lon="3.35955">
        <ele>526.5</ele>
        <time>2025-09-22T16:09:06.290Z</time>
      </trkpt>
      <trkpt lat="45.61811" lon="3.35992">
        <ele>524.52</ele>
        <time>2025-09-22T16:09:07.655Z</time>
      </trkpt>
      <trkpt lat="45.61813" lon="3.35998">
        <ele>522.86</ele>
        <time>2025-09-22T16:09:09.022Z</time>
      </trkpt>
      <trkpt lat="45.6184" lon="3.36021">
        <ele>521.08</ele>
        <time>2025-09-22T16:09:10.399Z</time>
      </trkpt>
      <trkpt lat="45.61851" lon="3.3603">
        <ele>519.64</ele>
        <time>2025-09-22T16:09:11.780Z</time>
      </trkpt>
      <trkpt lat="45.61855" lon="3.36075">
        <ele>518.5</ele>
        <time>2025-09-22T16:09:13.172Z</time>
      </trkpt>
      <trkpt lat="45.6186" lon="3.36119">
        <ele>517.39</ele>
        <time>2025-09-22T16:09:14.574Z</time>
      </trkpt>
      <trkpt lat="45.61864" lon="3.36164">
        <ele>516.14</ele>
        <time>2025-09-22T16:09:15.987Z</time>
      </trkpt>
      <trkpt lat="45.61868" lon="3.36208">
        <ele>514.94</ele>
        <time>2025-09-22T16:09:17.410Z</time>
      </trkpt>
      <trkpt lat="45.61869" lon="3.36214">
        <ele>514.12</ele>
        <time>2025-09-22T16:09:18.835Z</time>
      </trkpt>
      <trkpt lat="45.61864" lon="3.36258">
        <ele>513.3</ele>
        <time>2025-09-22T16:09:20.270Z</time>
      </trkpt>
      <trkpt lat="45.6186" lon="3.36291">
        <ele>512.88</ele>
        <time>2025-09-22T16:09:21.713Z</time>
      </trkpt>
      <trkpt lat="45.61859" lon="3.36336">
        <ele>512.42</ele>
        <time>2025-09-22T16:09:23.166Z</time>
      </trkpt>
      <trkpt lat="45.61859" lon="3.36351">
        <ele>511.99</ele>
        <time>2025-09-22T16:09:24.623Z</time>
      </trkpt>
      <trkpt lat="45.61863" lon="3.36396">
        <ele>511.53</ele>
        <time>2025-09-22T16:09:26.090Z</time>
      </trkpt>
      <trkpt lat="45.61866" lon="3.36436">
        <ele>511.17</ele>
        <time>2025-09-22T16:09:27.567Z</time>
      </trkpt>
      <trkpt lat="45.61887" lon="3.36469">
        <ele>510.92</ele>
        <time>2025-09-22T16:09:29.054Z</time>
      </trkpt>
      <trkpt lat="45.61892" lon="3.36478">
        <ele>510.64</ele>
        <time>2025-09-22T16:09:30.544Z</time>
      </trkpt>
      <trkpt lat="45.61919" lon="3.36502">
        <ele>510.44</ele>
        <time>2025-09-22T16:09:32.044Z</time>
      </trkpt>
      <trkpt lat="45.61945" lon="3.36526">
        <ele>510.04</ele>
        <time>2025-09-22T16:09:33.555Z</time>
      </trkpt>
      <trkpt lat="45.61952" lon="3.36532">
        <ele>509.63</ele>
        <time>2025-09-22T16:09:35.069Z</time>
      </trkpt>
      <trkpt lat="45.6198" lon="3.36554">
        <ele>509.16</ele>
        <time>2025-09-22T16:09:36.593Z</time>
      </trkpt>
      <trkpt lat="45.62" lon="3.36569">
        <ele>508.67</ele>
        <time>2025-09-22T16:09:38.125Z</time>
      </trkpt>
      <trkpt lat="45.62026" lon="3.36569">
        <ele>507.95</ele>
        <time>2025-09-22T16:09:39.665Z</time>
      </trkpt>
      <trkpt lat="45.62057" lon="3.36574">
        <ele>507.13</ele>
        <time>2025-09-22T16:09:41.216Z</time>
      </trkpt>
      <trkpt lat="45.62081" lon="3.36579">
        <ele>506.11</ele>
        <time>2025-09-22T16:09:42.775Z</time>
      </trkpt>
      <trkpt lat="45.62107" lon="3.36605">
        <ele>504.85</ele>
        <time>2025-09-22T16:09:44.345Z</time>
      </trkpt>
      <trkpt lat="45.62132" lon="3.36631">
        <ele>503.45</ele>
        <time>2025-09-22T16:09:45.925Z</time>
      </trkpt>
      <trkpt lat="45.62143" lon="3.36642">
        <ele>502.07</ele>
        <time>2025-09-22T16:09:47.509Z</time>
      </trkpt>
      <trkpt lat="45.62174" lon="3.36651">
        <ele>500.59</ele>
        <time>2025-09-22T16:09:49.104Z</time>
      </trkpt>
      <trkpt lat="45.62193" lon="3.36657">
        <ele>498.95</ele>
        <time>2025-09-22T16:09:50.705Z</time>
      </trkpt>
      <trkpt lat="45.62224" lon="3.36649">
        <ele>497.17</ele>
        <time>2025-09-22T16:09:52.317Z</time>
      </trkpt>
      <trkpt lat="45.62228" lon="3.36648">
        <ele>495.31</ele>
        <time>2025-09-22T16:09:53.930Z</time>
      </trkpt>
      <trkpt lat="45.62255" lon="3.36657">
        <ele>493.12</ele>
        <time>2025-09-22T16:09:55.552Z</time>
      </trkpt>
      <trkpt lat="45.62266" lon="3.36615">
        <ele>491.24</ele>
        <time>2025-09-22T16:09:57.185Z</time>
      </trkpt>
      <trkpt lat="45.62276" lon="3.36574">
        <ele>489.22</ele>
        <time>2025-09-22T16:09:58.828Z</time>
      </trkpt>
      <trkpt lat="45.62286" lon="3.36531">
        <ele>487.05</ele>
        <time>2025-09-22T16:10:00.482Z</time>
      </trkpt>
      <trkpt lat="45.62294" lon="3.36493">
        <ele>484.58</ele>
        <time>2025-09-22T16:10:02.145Z</time>
      </trkpt>
      <trkpt lat="45.62313" lon="3.36458">
        <ele>481.77</ele>
        <time>2025-09-22T16:10:03.818Z</time>
      </trkpt>
      <trkpt lat="45.62322" lon="3.36441">
        <ele>478.97</ele>
        <time>2025-09-22T16:10:05.496Z</time>
      </trkpt>
      <trkpt lat="45.62342" lon="3.36424">
        <ele>475.91</ele>
        <time>2025-09-22T16:10:07.182Z</time>
      </trkpt>
      <trkpt lat="45.62361" lon="3.36389">
        <ele>472.55</ele>
        <time>2025-09-22T16:10:08.878Z</time>
      </trkpt>
      <trkpt lat="45.62362" lon="3.36388">
        <ele>469.8</ele>
        <time>2025-09-22T16:10:10.575Z</time>
      </trkpt>
      <trkpt lat="45.62388" lon="3.36362">
        <ele>466.36</ele>
        <time>2025-09-22T16:10:12.282Z</time>
      </trkpt>
      <trkpt lat="45.62389" lon="3.36361">
        <ele>463.82</ele>
        <time>2025-09-22T16:10:13.990Z</time>
      </trkpt>
      <trkpt lat="45.62398" lon="3.36393">
        <ele>461.15</ele>
        <time>2025-09-22T16:10:15.706Z</time>
      </trkpt>
      <trkpt lat="45.62398" lon="3.36422">
        <ele>458.99</ele>
        <time>2025-09-22T16:10:17.429Z</time>
      </trkpt>
      <trkpt lat="45.62397" lon="3.36458">
        <ele>457.12</ele>
        <time>2025-09-22T16:10:19.160Z</time>
      </trkpt>
      <trkpt lat="45.6242" lon="3.3648">
        <ele>454.81</ele>
        <time>2025-09-22T16:10:20.901Z</time>
      </trkpt>
      <trkpt lat="45.62442" lon="3.3647">
        <ele>453.5</ele>
        <time>2025-09-22T16:10:22.649Z</time>
      </trkpt>
      <trkpt lat="45.62473" lon="3.3646">
        <ele>452.72</ele>
        <time>2025-09-22T16:10:24.408Z</time>
      </trkpt>
      <trkpt lat="45.62502" lon="3.36451">
        <ele>452.47</ele>
        <time>2025-09-22T16:10:26.177Z</time>
      </trkpt>
      <trkpt lat="45.62517" lon="3.36481">
        <ele>452.45</ele>
        <time>2025-09-22T16:10:27.954Z</time>
      </trkpt>
      <trkpt lat="45.62548" lon="3.36478">
        <ele>453.03</ele>
        <time>2025-09-22T16:10:29.742Z</time>
      </trkpt>
      <trkpt lat="45.62579" lon="3.36475">
        <ele>454.02</ele>
        <time>2025-09-22T16:10:31.540Z</time>
      </trkpt>
      <trkpt lat="45.62611" lon="3.36472">
        <ele>455.46</ele>
        <time>2025-09-22T16:10:33.349Z</time>
      </trkpt>
      <trkpt lat="45.62642" lon="3.36469">
        <ele>457.4</ele>
        <time>2025-09-22T16:10:35.168Z</time>
      </trkpt>
      <trkpt lat="45.62654" lon="3.36468">
        <ele>459.54</ele>
        <time>2025-09-22T16:10:36.991Z</time>
      </trkpt>
      <trkpt lat="45.6268" lon="3.36483">
        <ele>462.14</ele>
        <time>2025-09-22T16:10:38.824Z</time>
      </trkpt>
      <trkpt lat="45.62701" lon="3.36455">
        <ele>465.2</ele>
        <time>2025-09-22T16:10:40.666Z</time>
      </trkpt>
      <trkpt lat="45.62729" lon="3.36475">
        <ele>468.37</ele>
        <time>2025-09-22T16:10:42.519Z</time>
      </trkpt>
      <trkpt lat="45.62758" lon="3.36494">
        <ele>471.67</ele>
        <time>2025-09-22T16:10:44.382Z</time>
      </trkpt>
      <trkpt lat="45.62771" lon="3.36503">
        <ele>475.1</ele>
        <time>2025-09-22T16:10:46.250Z</time>
      </trkpt>
      <trkpt lat="45.62802" lon="3.36504">
        <ele>479.01</ele>
        <time>2025-09-22T16:10:48.129Z</time>
      </trkpt>
      <trkpt lat="45.62834" lon="3.36504">
        <ele>482.95</ele>
        <time>2025-09-22T16:10:50.018Z</time>
      </trkpt>
      <trkpt lat="45.62865" lon="3.36504">
        <ele>486.9</ele>
        <time>2025-09-22T16:10:51.918Z</time>
      </trkpt>
      <trkpt lat="45.62897" lon="3.36505">
        <ele>490.89</ele>
        <time>2025-09-22T16:10:53.828Z</time>
      </trkpt>
      <trkpt lat="45.62928" lon="3.36505">
        <ele>494.91</ele>
        <time>2025-09-22T16:10:55.749Z</time>
      </trkpt>
      <trkpt lat="45.6296" lon="3.36505">
        <ele>499.06</ele>
        <time>2025-09-22T16:10:57.680Z</time>
      </trkpt>
      <trkpt lat="45.62991" lon="3.36506">
        <ele>503.36</ele>
        <time>2025-09-22T16:10:59.621Z</time>
      </trkpt>
      <trkpt lat="45.63021" lon="3.36494">
        <ele>507.69</ele>
        <time>2025-09-22T16:11:01.573Z</time>
      </trkpt>
      <trkpt lat="45.63052" lon="3.36483">
        <ele>511.89</ele>
        <time>2025-09-22T16:11:03.535Z</time>
      </trkpt>
      <trkpt lat="45.63082" lon="3.36471">
        <ele>516.1</ele>
        <time>2025-09-22T16:11:05.508Z</time>
      </trkpt>
      <trkpt lat="45.63113" lon="3.3646">
        <ele>520.27</ele>
        <time>2025-09-22T16:11:07.491Z</time>
      </trkpt>
      <trkpt lat="45.63143" lon="3.36449">
        <ele>524.36</ele>
        <time>2025-09-22T16:11:09.485Z</time>
      </trkpt>
      <trkpt lat="45.63174" lon="3.36437">
        <ele>528.44</ele>
        <time>2025-09-22T16:11:11.489Z</time>
      </trkpt>
      <trkpt lat="45.632" lon="3.36427">
        <ele>532.46</ele>
        <time>2025-09-22T16:11:13.503Z</time>
      </trkpt>
      <trkpt lat="45.63231" lon="3.3642">
        <ele>536.32</ele>
        <time>2025-09-22T16:11:15.527Z</time>
      </trkpt>
      <trkpt lat="45.63262" lon="3.36413">
        <ele>540.17</ele>
        <time>2025-09-22T16:11:17.562Z</time>
      </trkpt>
      <trkpt lat="45.63272" lon="3.36411">
        <ele>543.78</ele>
        <time>2025-09-22T16:11:19.600Z</time>
      </trkpt>
      <trkpt lat="45.63303" lon="3.36415">
        <ele>547.6</ele>
        <time>2025-09-22T16:11:21.648Z</time>
      </trkpt>
      <trkpt lat="45.63335" lon="3.36418">
        <ele>551.33</ele>
        <time>2025-09-22T16:11:23.707Z</time>
      </trkpt>
      <trkpt lat="45.63341" lon="3.36419">
        <ele>554.51</ele>
        <time>2025-09-22T16:11:25.768Z</time>
      </trkpt>
      <trkpt lat="45.63358" lon="3.36403">
        <ele>557.68</ele>
        <time>2025-09-22T16:11:27.836Z</time>
      </trkpt>
      <trkpt lat="45.63362" lon="3.36358">
        <ele>560.64</ele>
        <time>2025-09-22T16:11:29.914Z</time>
      </trkpt>
      <trkpt lat="45.63363" lon="3.36351">
        <ele>563.33</ele>
        <time>2025-09-22T16:11:31.994Z</time>
      </trkpt>
      <trkpt lat="45.63393" lon="3.36338">
        <ele>566.05</ele>
        <time>2025-09-22T16:11:34.084Z</time>
      </trkpt>
      <trkpt lat="45.634" lon="3.36335">
        <ele>568.55</ele>
        <time>2025-09-22T16:11:36.177Z</time>
      </trkpt>
      <trkpt lat="45.6343" lon="3.36325">
        <ele>571.14</ele>
        <time>2025-09-22T16:11:38.280Z</time>
      </trkpt>
      <trkpt lat="45.63445" lon="3.3632">
        <ele>573.36</ele>
        <time>2025-09-22T16:11:40.388Z</time>
      </trkpt>
      <trkpt lat="45.63475" lon="3.36331">
        <ele>575.5</ele>
        <time>2025-09-22T16:11:42.507Z</time>
      </trkpt>
      <trkpt lat="45.63506" lon="3.36341">
        <ele>577.54</ele>
        <time>2025-09-22T16:11:44.636Z</time>
      </trkpt>
      <trkpt lat="45.6352" lon="3.36346">
        <ele>579.41</ele>
        <time>2025-09-22T16:11:46.770Z</time>
      </trkpt>
      <trkpt lat="45.6355" lon="3.36355">
        <ele>581.21</ele>
        <time>2025-09-22T16:11:48.914Z</time>
      </trkpt>
      <trkpt lat="45.63576" lon="3.36363">
        <ele>582.82</ele>
        <time>2025-09-22T16:11:51.067Z</time>
      </trkpt>
      <trkpt lat="45.63607" lon="3.36372">
        <ele>584.36</ele>
        <time>2025-09-22T16:11:53.231Z</time>
      </trkpt>
      <trkpt lat="45.6361" lon="3.36373">
        <ele>585.87</ele>
        <time>2025-09-22T16:11:55.396Z</time>
      </trkpt>
      <trkpt lat="45.63639" lon="3.36358">
        <ele>587.43</ele>
        <time>2025-09-22T16:11:57.571Z</time>
      </trkpt>
      <trkpt lat="45.63669" lon="3.36344">
        <ele>588.97</ele>
        <time>2025-09-22T16:11:59.757Z</time>
      </trkpt>
      <trkpt lat="45.6368" lon="3.36338">
        <ele>590.38</ele>
        <time>2025-09-22T16:12:01.946Z</time>
      </trkpt>
      <trkpt lat="45.63711" lon="3.36329">
        <ele>591.91</ele>
        <time>2025-09-22T16:12:04.146Z</time>
      </trkpt>
      <trkpt lat="45.63742" lon="3.3632">
        <ele>593.37</ele>
        <time>2025-09-22T16:12:06.356Z</time>
      </trkpt>
      <trkpt lat="45.63751" lon="3.36318">
        <ele>594.7</ele>
        <time>2025-09-22T16:12:08.569Z</time>
      </trkpt>
      <trkpt lat="45.63775" lon="3.3629">
        <ele>596.05</ele>
        <time>2025-09-22T16:12:10.793Z</time>
      </trkpt>
      <trkpt lat="45.63787" lon="3.36276">
        <ele>597.37</ele>
        <time>2025-09-22T16:12:13.022Z</time>
      </trkpt>
      <trkpt lat="45.63808" lon="3.36242">
        <ele>598.67</ele>
        <time>2025-09-22T16:12:15.262Z</time>
      </trkpt>
      <trkpt lat="45.63814" lon="3.36233">
        <ele>599.83</ele>
        <time>2025-09-22T16:12:17.504Z</time>
      </trkpt>
      <trkpt lat="45.63814" lon="3.36197">
        <ele>600.99</ele>
        <time>2025-09-22T16:12:19.755Z</time>
      </trkpt>
      <trkpt lat="45.63792" lon="3.36165">
        <ele>602.01</ele>
        <time>2025-09-22T16:12:22.016Z</time>
      </trkpt>
      <trkpt lat="45.63778" lon="3.36147">
        <ele>603.04</ele>
        <time>2025-09-22T16:12:24.284Z</time>
      </trkpt>
      <trkpt lat="45.63752" lon="3.36122">
        <ele>604.14</ele>
        <time>2025-09-22T16:12:26.562Z</time>
      </trkpt>
      <trkpt lat="45.63736" lon="3.36106">
        <ele>605.11</ele>
        <time>2025-09-22T16:12:28.847Z</time>
      </trkpt>
      <trkpt lat="45.63706" lon="3.36094">
        <ele>605.69</ele>
        <time>2025-09-22T16:12:31.142Z</time>
      </trkpt>
      <trkpt lat="45.63684" lon="3.36062">
        <ele>606.23</ele>
        <time>2025-09-22T16:12:33.448Z</time>
      </trkpt>
      <trkpt lat="45.63681" lon="3.36057">
        <ele>606.64</ele>
        <time>2025-09-22T16:12:35.755Z</time>
      </trkpt>
      <trkpt lat="45.63673" lon="3.36029">
        <ele>606.93</ele>
        <time>2025-09-22T16:12:38.069Z</time>
      </trkpt>
      <trkpt lat="45.63679" lon="3.36002">
        <ele>607.19</ele>
        <time>2025-09-22T16:12:40.390Z</time>
      </trkpt>
      <trkpt lat="45.63706" lon="3.35979">
        <ele>607.42</ele>
        <time>2025-09-22T16:12:42.721Z</time>
      </trkpt>
      <trkpt lat="45.6371" lon="3.35976">
        <ele>607.44</ele>
        <time>2025-09-22T16:12:45.054Z</time>
      </trkpt>
      <trkpt lat="45.63735" lon="3.35948">
        <ele>607.28</ele>
        <time>2025-09-22T16:12:47.397Z</time>
      </trkpt>
      <trkpt lat="45.63736" lon="3.35948">
        <ele>607.1</ele>
        <time>2025-09-22T16:12:49.741Z</time>
      </trkpt>
      <trkpt lat="45.63757" lon="3.35915">
        <ele>606.74</ele>
        <time>2025-09-22T16:12:52.095Z</time>
      </trkpt>
      <trkpt lat="45.63778" lon="3.35882">
        <ele>606.28</ele>
        <time>2025-09-22T16:12:54.460Z</time>
      </trkpt>
      <trkpt lat="45.63784" lon="3.35873">
        <ele>605.87</ele>
        <time>2025-09-22T16:12:56.827Z</time>
      </trkpt>
      <trkpt lat="45.63802" lon="3.35835">
        <ele>605.33</ele>
        <time>2025-09-22T16:12:59.205Z</time>
      </trkpt>
      <trkpt lat="45.63817" lon="3.358">
        <ele>605.01</ele>
        <time>2025-09-22T16:13:01.593Z</time>
      </trkpt>
      <trkpt lat="45.63802" lon="3.35761">
        <ele>604.54</ele>
        <time>2025-09-22T16:13:03.991Z</time>
      </trkpt>
      <trkpt lat="45.63802" lon="3.3576">
        <ele>604.07</ele>
        <time>2025-09-22T16:13:06.389Z</time>
      </trkpt>
      <trkpt lat="45.6377" lon="3.35755">
        <ele>603.27</ele>
        <time>2025-09-22T16:13:08.798Z</time>
      </trkpt>
      <trkpt lat="45.63752" lon="3.35752">
        <ele>602.68</ele>
        <time>2025-09-22T16:13:11.213Z</time>
      </trkpt>
      <trkpt lat="45.63721" lon="3.35743">
        <ele>602.12</ele>
        <time>2025-09-22T16:13:13.639Z</time>
      </trkpt>
      <trkpt lat="45.63716" lon="3.35742">
        <ele>601.74</ele>
        <time>2025-09-22T16:13:16.066Z</time>
      </trkpt>
      <trkpt lat="45.6369" lon="3.35716">
        <ele>601.74</ele>
        <time>2025-09-22T16:13:18.504Z</time>
      </trkpt>
      <trkpt lat="45.63679" lon="3.35705">
        <ele>601.64</ele>
        <time>2025-09-22T16:13:20.946Z</time>
      </trkpt>
      <trkpt lat="45.63649" lon="3.35692">
        <ele>601.52</ele>
        <time>2025-09-22T16:13:23.399Z</time>
      </trkpt>
      <trkpt lat="45.63644" lon="3.3569">
        <ele>601.34</ele>
        <time>2025-09-22T16:13:25.854Z</time>
      </trkpt>
      <trkpt lat="45.63618" lon="3.35664">
        <ele>601.35</ele>
        <time>2025-09-22T16:13:28.319Z</time>
      </trkpt>
      <trkpt lat="45.6361" lon="3.35656">
        <ele>601.23</ele>
        <time>2025-09-22T16:13:30.788Z</time>
      </trkpt>
      <trkpt lat="45.63583" lon="3.35632">
        <ele>601.06</ele>
        <time>2025-09-22T16:13:33.267Z</time>
      </trkpt>
      <trkpt lat="45.63566" lon="3.35617">
        <ele>600.83</ele>
        <time>2025-09-22T16:13:35.753Z</time>
      </trkpt>
      <trkpt lat="45.63564" lon="3.35572">
        <ele>601.15</ele>
        <time>2025-09-22T16:13:38.249Z</time>
      </trkpt>
      <trkpt lat="45.63563" lon="3.35564">
        <ele>601.22</ele>
        <time>2025-09-22T16:13:40.747Z</time>
      </trkpt>
      <trkpt lat="45.63553" lon="3.35521">
        <ele>601.3</ele>
        <time>2025-09-22T16:13:43.256Z</time>
      </trkpt>
      <trkpt lat="45.63548" lon="3.35499">
        <ele>601.38</ele>
        <time>2025-09-22T16:13:45.770Z</time>
      </trkpt>
      <trkpt lat="45.63518" lon="3.35484">
        <ele>600.92</ele>
        <time>2025-09-22T16:13:48.295Z</time>
      </trkpt>
      <trkpt lat="45.63514" lon="3.35482">
        <ele>601.02</ele>
        <time>2025-09-22T16:13:50.821Z</time>
      </trkpt>
      <trkpt lat="45.63484" lon="3.35465">
        <ele>601.1</ele>
        <time>2025-09-22T16:13:53.358Z</time>
      </trkpt>
      <trkpt lat="45.63455" lon="3.35448">
        <ele>601.5</ele>
        <time>2025-09-22T16:13:55.905Z</time>
      </trkpt>
      <trkpt lat="45.63443" lon="3.35441">
        <ele>601.92</ele>
        <time>2025-09-22T16:13:58.457Z</time>
      </trkpt>
      <trkpt lat="45.63412" lon="3.35446">
        <ele>602.18</ele>
        <time>2025-09-22T16:14:01.019Z</time>
      </trkpt>
      <trkpt lat="45.63392" lon="3.3545">
        <ele>602.77</ele>
        <time>2025-09-22T16:14:03.588Z</time>
      </trkpt>
      <trkpt lat="45.63362" lon="3.35437">
        <ele>603.62</ele>
        <time>2025-09-22T16:14:06.167Z</time>
      </trkpt>
      <trkpt lat="45.63332" lon="3.35425">
        <ele>604.49</ele>
        <time>2025-09-22T16:14:08.757Z</time>
      </trkpt>
      <trkpt lat="45.63319" lon="3.3542">
        <ele>605.35</ele>
        <time>2025-09-22T16:14:11.351Z</time>
      </trkpt>
      <trkpt lat="45.63334" lon="3.35385">
        <ele>606.64</ele>
        <time>2025-09-22T16:14:13.955Z</time>
      </trkpt>
      <trkpt lat="45.63307" lon="3.35362">
        <ele>607.66</ele>
        <time>2025-09-22T16:14:16.569Z</time>
      </trkpt>
      <trkpt lat="45.63292" lon="3.35349">
        <ele>608.6</ele>
        <time>2025-09-22T16:14:19.189Z</time>
      </trkpt>
      <trkpt lat="45.63284" lon="3.35305">
        <ele>609.63</ele>
        <time>2025-09-22T16:14:21.820Z</time>
      </trkpt>
      <trkpt lat="45.63277" lon="3.35262">
        <ele>610.74</ele>
        <time>2025-09-22T16:14:24.461Z</time>
      </trkpt>
      <trkpt lat="45.63277" lon="3.35261">
        <ele>611.68</ele>
        <time>2025-09-22T16:14:27.102Z</time>
      </trkpt>
      <trkpt lat="45.63273" lon="3.35216">
        <ele>612.88</ele>
        <time>2025-09-22T16:14:29.754Z</time>
      </trkpt>
      <trkpt lat="45.63269" lon="3.35172">
        <ele>614.02</ele>
        <time>2025-09-22T16:14:32.416Z</time>
      </trkpt>
      <trkpt lat="45.63268" lon="3.35158">
        <ele>614.84</ele>
        <time>2025-09-22T16:14:35.082Z</time>
      </trkpt>
      <trkpt lat="45.63247" lon="3.35124">
        <ele>615.44</ele>
        <time>2025-09-22T16:14:37.758Z</time>
      </trkpt>
      <trkpt lat="45.63244" lon="3.35117">
        <ele>615.99</ele>
        <time>2025-09-22T16:14:40.436Z</time>
      </trkpt>
      <trkpt lat="45.63212" lon="3.35121">
        <ele>616.01</ele>
        <time>2025-09-22T16:14:43.125Z</time>
      </trkpt>
      <trkpt lat="45.63181" lon="3.35125">
        <ele>616.15</ele>
        <time>2025-09-22T16:14:45.824Z</time>
      </trkpt>
      <trkpt lat="45.63163" lon="3.35128">
        <ele>616.29</ele>
        <time>2025-09-22T16:14:48.529Z</time>
      </trkpt>
      <trkpt lat="45.63136" lon="3.35104">
        <ele>616.35</ele>
        <time>2025-09-22T16:14:51.245Z</time>
      </trkpt>
      <trkpt lat="45.63116" lon="3.35087">
        <ele>616.34</ele>
        <time>2025-09-22T16:14:53.968Z</time>
      </trkpt>
      <trkpt lat="45.63085" lon="3.35083">
        <ele>616.05</ele>
        <time>2025-09-22T16:14:56.702Z</time>
      </trkpt>
      <trkpt lat="45.63068" lon="3.35081">
        <ele>615.73</ele>
        <time>2025-09-22T16:14:59.441Z</time>
      </trkpt>
      <trkpt lat="45.63044" lon="3.35061">
        <ele>615.43</ele>
        <time>2025-09-22T16:15:02.190Z</time>
      </trkpt>
      <trkpt lat="45.63036" lon="3.35018">
        <ele>615.18</ele>
        <time>2025-09-22T16:15:04.949Z</time>
      </trkpt>
      <trkpt lat="45.63028" lon="3.34974">
        <ele>614.5</ele>
        <time>2025-09-22T16:15:07.719Z</time>
      </trkpt>
      <trkpt lat="45.63026" lon="3.34963">
        <ele>613.66</ele>
        <time>2025-09-22T16:15:10.492Z</time>
      </trkpt>
      <trkpt lat="45.63009" lon="3.34924">
        <ele>612.45</ele>
        <time>2025-09-22T16:15:13.275Z</time>
      </trkpt>
      <trkpt lat="45.62999" lon="3.349">
        <ele>611.12</ele>
        <time>2025-09-22T16:15:16.065Z</time>
      </trkpt>
      <trkpt lat="45.62972" lon="3.34923">
        <ele>609.74</ele>
        <time>2025-09-22T16:15:18.865Z</time>
      </trkpt>
      <trkpt lat="45.62963" lon="3.3493">
        <ele>608.3</ele>
        <time>2025-09-22T16:15:21.669Z</time>
      </trkpt>
      <trkpt lat="45.62949" lon="3.34971">
        <ele>606.91</ele>
        <time>2025-09-22T16:15:24.483Z</time>
      </trkpt>
      <trkpt lat="45.62943" lon="3.34988">
        <ele>605.21</ele>
        <time>2025-09-22T16:15:27.302Z</time>
      </trkpt>
      <trkpt lat="45.62933" lon="3.35031">
        <ele>603.29</ele>
        <time>2025-09-22T16:15:30.131Z</time>
      </trkpt>
      <trkpt lat="45.62927" lon="3.35055">
        <ele>601.16</ele>
        <time>2025-09-22T16:15:32.966Z</time>
      </trkpt>
      <trkpt lat="45.62928" lon="3.351">
        <ele>598.78</ele>
        <time>2025-09-22T16:15:35.812Z</time>
      </trkpt>
      <trkpt lat="45.6293" lon="3.35145">
        <ele>596.19</ele>
        <time>2025-09-22T16:15:38.668Z</time>
      </trkpt>
      <trkpt lat="45.62931" lon="3.35189">
        <ele>593.41</ele>
        <time>2025-09-22T16:15:41.535Z</time>
      </trkpt>
      <trkpt lat="45.62931" lon="3.35203">
        <ele>590.86</ele>
        <time>2025-09-22T16:15:44.405Z</time>
      </trkpt>
      <trkpt lat="45.62927" lon="3.35248">
        <ele>587.94</ele>
        <time>2025-09-22T16:15:47.285Z</time>
      </trkpt>
      <trkpt lat="45.62927" lon="3.35252">
        <ele>585.36</ele>
        <time>2025-09-22T16:15:50.166Z</time>
      </trkpt>
      <trkpt lat="45.62915" lon="3.35294">
        <ele>582.5</ele>
        <time>2025-09-22T16:15:53.058Z</time>
      </trkpt>
      <trkpt lat="45.6291" lon="3.35308">
        <ele>579.79</ele>
        <time>2025-09-22T16:15:55.954Z</time>
      </trkpt>
      <trkpt lat="45.62886" lon="3.35336">
        <ele>576.94</ele>
        <time>2025-09-22T16:15:58.860Z</time>
      </trkpt>
      <trkpt lat="45.62861" lon="3.35364">
        <ele>574.15</ele>
        <time>2025-09-22T16:16:01.777Z</time>
      </trkpt>
      <trkpt lat="45.62859" lon="3.35366">
        <ele>571.51</ele>
        <time>2025-09-22T16:16:04.694Z</time>
      </trkpt>
      <trkpt lat="45.6283" lon="3.35383">
        <ele>569.06</ele>
        <time>2025-09-22T16:16:07.622Z</time>
      </trkpt>
      <trkpt lat="45.62801" lon="3.35401">
        <ele>566.55</ele>
        <time>2025-09-22T16:16:10.560Z</time>
      </trkpt>
      <trkpt lat="45.62787" lon="3.35409">
        <ele>563.84</ele>
        <time>2025-09-22T16:16:13.503Z</time>
      </trkpt>
      <trkpt lat="45.62766" lon="3.35413">
        <ele>560.86</ele>
        <time>2025-09-22T16:16:16.453Z</time>
      </trkpt>
      <trkpt lat="45.62735" lon="3.35409">
        <ele>557.65</ele>
        <time>2025-09-22T16:16:19.414Z</time>
      </trkpt>
      <trkpt lat="45.62735" lon="3.35409">
        <ele>554.86</ele>
        <time>2025-09-22T16:16:22.375Z</time>
      </trkpt>
      <trkpt lat="45.62703" lon="3.35412">
        <ele>551.55</ele>
        <time>2025-09-22T16:16:25.346Z</time>
      </trkpt>
      <trkpt lat="45.62688" lon="3.35413">
        <ele>548.54</ele>
        <time>2025-09-22T16:16:28.323Z</time>
      </trkpt>
      <trkpt lat="45.62657" lon="3.35413">
        <ele>545.47</ele>
        <time>2025-09-22T16:16:31.310Z</time>
      </trkpt>
      <trkpt lat="45.62645" lon="3.35413">
        <ele>542.66</ele>
        <time>2025-09-22T16:16:34.301Z</time>
      </trkpt>
      <trkpt lat="45.62616" lon="3.35395">
        <ele>539.63</ele>
        <time>2025-09-22T16:16:37.303Z</time>
      </trkpt>
      <trkpt lat="45.62609" lon="3.3539">
        <ele>536.82</ele>
        <time>2025-09-22T16:16:40.307Z</time>
      </trkpt>
      <trkpt lat="45.62585" lon="3.35361">
        <ele>533.75</ele>
        <time>2025-09-22T16:16:43.322Z</time>
      </trkpt>
      <trkpt lat="45.6258" lon="3.35355">
        <ele>531.08</ele>
        <time>2025-09-22T16:16:46.339Z</time>
      </trkpt>
      <trkpt lat="45.62556" lon="3.35326">
        <ele>528.2</ele>
        <time>2025-09-22T16:16:49.366Z</time>
      </trkpt>
      <trkpt lat="45.62541" lon="3.35308">
        <ele>525.51</ele>
        <time>2025-09-22T16:16:52.400Z</time>
      </trkpt>
      <trkpt lat="45.62514" lon="3.35287">
        <ele>522.79</ele>
        <time>2025-09-22T16:16:55.444Z</time>
      </trkpt>
      <trkpt lat="45.62499" lon="3.35276">
        <ele>520.23</ele>
        <time>2025-09-22T16:16:58.494Z</time>
      </trkpt>
      <trkpt lat="45.62472" lon="3.35253">
        <ele>517.49</ele>
        <time>2025-09-22T16:17:01.554Z</time>
      </trkpt>
      <trkpt lat="45.62466" lon="3.35248">
        <ele>515.02</ele>
        <time>2025-09-22T16:17:04.616Z</time>
      </trkpt>
      <trkpt lat="45.62459" lon="3.35229">
        <ele>512.54</ele>
        <time>2025-09-22T16:17:07.684Z</time>
      </trkpt>
      <trkpt lat="45.6247" lon="3.35227">
        <ele>510.26</ele>
        <time>2025-09-22T16:17:10.755Z</time>
      </trkpt>
      <trkpt lat="45.62485" lon="3.35232">
        <ele>507.96</ele>
        <time>2025-09-22T16:17:13.831Z</time>
      </trkpt>
      <trkpt lat="45.62505" lon="3.35235">
        <ele>505.56</ele>
        <time>2025-09-22T16:17:16.914Z</time>
      </trkpt>
      <trkpt lat="45.62523" lon="3.35238">
        <ele>502.94</ele>
        <time>2025-09-22T16:17:20.003Z</time>
      </trkpt>
      <trkpt lat="45.62515" lon="3.35225">
        <ele>500.07</ele>
        <time>2025-09-22T16:17:23.096Z</time>
      </trkpt>
      <trkpt lat="45.62498" lon="3.35218">
        <ele>497.05</ele>
        <time>2025-09-22T16:17:26.195Z</time>
      </trkpt>
      <trkpt lat="45.62487" lon="3.3521">
        <ele>493.89</ele>
        <time>2025-09-22T16:17:29.298Z</time>
      </trkpt>
      <trkpt lat="45.62473" lon="3.35197">
        <ele>490.57</ele>
        <time>2025-09-22T16:17:32.407Z</time>
      </trkpt>
      <trkpt lat="45.62453" lon="3.35163">
        <ele>486.93</ele>
        <time>2025-09-22T16:17:35.526Z</time>
      </trkpt>
      <trkpt lat="45.62424" lon="3.35144">
        <ele>483.02</ele>
        <time>2025-09-22T16:17:38.655Z</time>
      </trkpt>
      <trkpt lat="45.62405" lon="3.35131">
        <ele>479.25</ele>
        <time>2025-09-22T16:17:41.792Z</time>
      </trkpt>
      <trkpt lat="45.62373" lon="3.35134">
        <ele>475.37</ele>
        <time>2025-09-22T16:17:44.939Z</time>
      </trkpt>
      <trkpt lat="45.62342" lon="3.35136">
        <ele>471.46</ele>
        <time>2025-09-22T16:17:48.097Z</time>
      </trkpt>
      <trkpt lat="45.62335" lon="3.35137">
        <ele>467.85</ele>
        <time>2025-09-22T16:17:51.257Z</time>
      </trkpt>
      <trkpt lat="45.62319" lon="3.35152">
        <ele>464.2</ele>
        <time>2025-09-22T16:17:54.423Z</time>
      </trkpt>
      <trkpt lat="45.62303" lon="3.35183">
        <ele>460.51</ele>
        <time>2025-09-22T16:17:57.598Z</time>
      </trkpt>
      <trkpt lat="45.62281" lon="3.35214">
        <ele>456.91</ele>
        <time>2025-09-22T16:18:00.784Z</time>
      </trkpt>
      <trkpt lat="45.62278" lon="3.35219">
        <ele>453.91</ele>
        <time>2025-09-22T16:18:03.971Z</time>
      </trkpt>
      <trkpt lat="45.62248" lon="3.35233">
        <ele>450.88</ele>
        <time>2025-09-22T16:18:07.169Z</time>
      </trkpt>
      <trkpt lat="45.62225" lon="3.35244">
        <ele>448.17</ele>
        <time>2025-09-22T16:18:10.375Z</time>
      </trkpt>
      <trkpt lat="45.62194" lon="3.35246">
        <ele>445.77</ele>
        <time>2025-09-22T16:18:13.591Z</time>
      </trkpt>
      <trkpt lat="45.62163" lon="3.35248">
        <ele>444.02</ele>
        <time>2025-09-22T16:18:16.818Z</time>
      </trkpt>
      <trkpt lat="45.62131" lon="3.3525">
        <ele>442.97</ele>
        <time>2025-09-22T16:18:20.055Z</time>
      </trkpt>
      <trkpt lat="45.62122" lon="3.3525">
        <ele>442.49</ele>
        <time>2025-09-22T16:18:23.295Z</time>
      </trkpt>
      <trkpt lat="45.62097" lon="3.35258">
        <ele>442.45</ele>
        <time>2025-09-22T16:18:26.544Z</time>
      </trkpt>
      <trkpt lat="45.62084" lon="3.35292">
        <ele>443.01</ele>
        <time>2025-09-22T16:18:29.802Z</time>
      </trkpt>
      <trkpt lat="45.6207" lon="3.35332">
        <ele>444.24</ele>
        <time>2025-09-22T16:18:33.070Z</time>
      </trkpt>
      <trkpt lat="45.62065" lon="3.35347">
        <ele>445.97</ele>
        <time>2025-09-22T16:18:36.342Z</time>
      </trkpt>
      <trkpt lat="45.62052" lon="3.35388">
        <ele>448.48</ele>
        <time>2025-09-22T16:18:39.625Z</time>
      </trkpt>
      <trkpt lat="45.62051" lon="3.3539">
        <ele>450.96</ele>
        <time>2025-09-22T16:18:42.908Z</time>
      </trkpt>
      <trkpt lat="45.62057" lon="3.35424">
        <ele>453.93</ele>
        <time>2025-09-22T16:18:46.199Z</time>
      </trkpt>
      <trkpt lat="45.62048" lon="3.35446">
        <ele>457.54</ele>
        <time>2025-09-22T16:18:49.496Z</time>
      </trkpt>
      <trkpt lat="45.62025" lon="3.35448">
        <ele>461.65</ele>
        <time>2025-09-22T16:18:52.801Z</time>
      </trkpt>
      <trkpt lat="45.62013" lon="3.3545">
        <ele>465.47</ele>
        <time>2025-09-22T16:18:56.110Z</time>
      </trkpt>
      <trkpt lat="45.61994" lon="3.35463">
        <ele>469.35</ele>
        <time>2025-09-22T16:18:59.426Z</time>
      </trkpt>
      <trkpt lat="45.61976" lon="3.35482">
        <ele>473.16</ele>
        <time>2025-09-22T16:19:02.749Z</time>
      </trkpt>
      <trkpt lat="45.61953" lon="3.35512">
        <ele>476.84</ele>
        <time>2025-09-22T16:19:06.083Z</time>
      </trkpt>
      <trkpt lat="45.61949" lon="3.35517">
        <ele>480.14</ele>
        <time>2025-09-22T16:19:09.419Z</time>
      </trkpt>
      <trkpt lat="45.61938" lon="3.35531">
        <ele>483.41</ele>
        <time>2025-09-22T16:19:12.760Z</time>
      </trkpt>
      <trkpt lat="45.61907" lon="3.3553">
        <ele>486.38</ele>
        <time>2025-09-22T16:19:16.111Z</time>
      </trkpt>
      <trkpt lat="45.61875" lon="3.35529">
        <ele>488.88</ele>
        <time>2025-09-22T16:19:19.473Z</time>
      </trkpt>
      <trkpt lat="45.61844" lon="3.35528">
        <ele>491.05</ele>
        <time>2025-09-22T16:19:22.845Z</time>
      </trkpt>
      <trkpt lat="45.61812" lon="3.35526">
        <ele>492.82</ele>
        <time>2025-09-22T16:19:26.228Z</time>
      </trkpt>
      <trkpt lat="45.61781" lon="3.35525">
        <ele>494.19</ele>
        <time>2025-09-22T16:19:29.621Z</time>
      </trkpt>
      <trkpt lat="45.6178" lon="3.35525">
        <ele>495.35</ele>
        <time>2025-09-22T16:19:33.014Z</time>
      </trkpt>
      <trkpt lat="45.6175" lon="3.35516">
        <ele>495.89</ele>
        <time>2025-09-22T16:19:36.418Z</time>
      </trkpt>
      <trkpt lat="45.61719" lon="3.35508">
        <ele>496.41</ele>
        <time>2025-09-22T16:19:39.832Z</time>
      </trkpt>
      <trkpt lat="45.61688" lon="3.35499">
        <ele>496.33</ele>
        <time>2025-09-22T16:19:43.257Z</time>
      </trkpt>
      <trkpt lat="45.61684" lon="3.35498">
        <ele>495.75</ele>
        <time>2025-09-22T16:19:46.683Z</time>
      </trkpt>
      <trkpt lat="45.61656" lon="3.35476">
        <ele>494.59</ele>
        <time>2025-09-22T16:19:50.120Z</time>
      </trkpt>
      <trkpt lat="45.61654" lon="3.35475">
        <ele>493.14</ele>
        <time>2025-09-22T16:19:53.557Z</time>
      </trkpt>
      <trkpt lat="45.6164" lon="3.35435">
        <ele>490.98</ele>
        <time>2025-09-22T16:19:57.005Z</time>
      </trkpt>
      <trkpt lat="45.61637" lon="3.35426">
        <ele>488.65</ele>
        <time>2025-09-22T16:20:00.455Z</time>
      </trkpt>
      <trkpt lat="45.61626" lon="3.35384">
        <ele>485.64</ele>
        <time>2025-09-22T16:20:03.916Z</time>
      </trkpt>
      <trkpt lat="45.61623" lon="3.35374">
        <ele>482.58</ele>
        <time>2025-09-22T16:20:07.379Z</time>
      </trkpt>
      <trkpt lat="45.61603" lon="3.35339">
        <ele>478.94</ele>
        <time>2025-09-22T16:20:10.853Z</time>
      </trkpt>
      <trkpt lat="45.61591" lon="3.35318">
        <ele>475.2</ele>
        <time>2025-09-22T16:20:14.333Z</time>
      </trkpt>
      <trkpt lat="45.61569" lon="3.35287">
        <ele>471.17</ele>
        <time>2025-09-22T16:20:17.823Z</time>
      </trkpt>
      <trkpt lat="45.61562" lon="3.35277">
        <ele>467.38</ele>
        <time>2025-09-22T16:20:21.317Z</time>
      </trkpt>
      <trkpt lat="45.61541" lon="3.35243">
        <ele>463.24</ele>
        <time>2025-09-22T16:20:24.821Z</time>
      </trkpt>
      <trkpt lat="45.61522" lon="3.35212">
        <ele>459.19</ele>
        <time>2025-09-22T16:20:28.335Z</time>
      </trkpt>
      <trkpt lat="45.61499" lon="3.35181">
        <ele>455.31</ele>
        <time>2025-09-22T16:20:31.860Z</time>
      </trkpt>
      <trkpt lat="45.61476" lon="3.3515">
        <ele>451.63</ele>
        <time>2025-09-22T16:20:35.395Z</time>
      </trkpt>
      <trkpt lat="45.61457" lon="3.35125">
        <ele>448.28</ele>
        <time>2025-09-22T16:20:38.939Z</time>
      </trkpt>
      <trkpt lat="45.61426" lon="3.35119">
        <ele>445.44</ele>
        <time>2025-09-22T16:20:42.493Z</time>
      </trkpt>
      <trkpt lat="45.61407" lon="3.35116">
        <ele>442.75</ele>
        <time>2025-09-22T16:20:46.053Z</time>
      </trkpt>
      <trkpt lat="45.61395" lon="3.35115">
        <ele>440.21</ele>
        <time>2025-09-22T16:20:49.617Z</time>
      </trkpt>
      <trkpt lat="45.61371" lon="3.35114">
        <ele>437.73</ele>
        <time>2025-09-22T16:20:53.189Z</time>
      </trkpt>
      <trkpt lat="45.61351" lon="3.35114">
        <ele>435.43</ele>
        <time>2025-09-22T16:20:56.768Z</time>
      </trkpt>
      <trkpt lat="45.61321" lon="3.35104">
        <ele>433.26</ele>
        <time>2025-09-22T16:21:00.358Z</time>
      </trkpt>
      <trkpt lat="45.61299" lon="3.35097">
        <ele>431.4</ele>
        <time>2025-09-22T16:21:03.955Z</time>
      </trkpt>
      <trkpt lat="45.61269" lon="3.35111">
        <ele>429.81</ele>
        <time>2025-09-22T16:21:07.563Z</time>
      </trkpt>
      <trkpt lat="45.61239" lon="3.35126">
        <ele>428.41</ele>
        <time>2025-09-22T16:21:11.181Z</time>
      </trkpt>
      <trkpt lat="45.61228" lon="3.35131">
        <ele>427.26</ele>
        <time>2025-09-22T16:21:14.803Z</time>
      </trkpt>
      <trkpt lat="45.61224" lon="3.35123">
        <ele>426.29</ele>
        <time>2025-09-22T16:21:18.427Z</time>
      </trkpt>
      <trkpt lat="45.61222" lon="3.35102">
        <ele>425.51</ele>
        <time>2025-09-22T16:21:22.056Z</time>
      </trkpt>
      <trkpt lat="45.61216" lon="3.35068">
        <ele>424.97</ele>
        <time>2025-09-22T16:21:25.693Z</time>
      </trkpt>
      <trkpt lat="45.61206" lon="3.35043">
        <ele>424.57</ele>
        <time>2025-09-22T16:21:29.337Z</time>
      </trkpt>
      <trkpt lat="45.6119" lon="3.35057">
        <ele>424.43</ele>
        <time>2025-09-22T16:21:32.987Z</time>
      </trkpt>
      <trkpt lat="45.61179" lon="3.35057">
        <ele>424.34</ele>
        <time>2025-09-22T16:21:36.641Z</time>
      </trkpt>
      <trkpt lat="45.61163" lon="3.35073">
        <ele>424.4</ele>
        <time>2025-09-22T16:21:40.301Z</time>
      </trkpt>
      <trkpt lat="45.61153" lon="3.35083">
        <ele>424.38</ele>
        <time>2025-09-22T16:21:43.965Z</time>
      </trkpt>
      <trkpt lat="45.61144" lon="3.35083">
        <ele>429.59</ele>
        <time>2025-09-22T16:21:47.633Z</time>
      </trkpt>
    </trkseg>
  </trk>
</gpx>